sensor_id;sensor_type;location;lat;lon;timestamp;P1;durP1;ratioP1;P2;durP2;ratioP2
13051;SDS011;6592;47.484;9.726;2024-02-21T00:00:06;4.28;;;1.25;;
13051;SDS011;6592;47.484;9.726;2024-02-21T00:02:36;4.40;;;1.20;;
13051;SDS011;6592;47.484;9.726;2024-02-21T00:05:04;3.70;;;1.10;;
13051;SDS011;6592;47.484;9.726;2024-02-21T00:07:33;4.68;;;1.40;;
13051;SDS011;6592;47.484;9.726;2024-02-21T00:10:02;3.78;;;1.38;;
13051;SDS011;6592;47.484;9.726;2024-02-21T00:12:30;4.05;;;1.10;;
13051;SDS011;6592;47.484;9.726;2024-02-21T00:15:00;1.75;;;0.90;;
13051;SDS011;6592;47.484;9.726;2024-02-21T00:17:29;3.47;;;0.95;;
13051;SDS011;6592;47.484;9.726;2024-02-21T00:19:57;2.83;;;1.00;;
13051;SDS011;6592;47.484;9.726;2024-02-21T00:22:25;2.80;;;0.90;;
13051;SDS011;6592;47.484;9.726;2024-02-21T00:24:55;5.18;;;1.08;;
13051;SDS011;6592;47.484;9.726;2024-02-21T00:27:24;2.97;;;1.23;;
13051;SDS011;6592;47.484;9.726;2024-02-21T00:29:52;2.55;;;0.95;;
13051;SDS011;6592;47.484;9.726;2024-02-21T00:32:22;2.65;;;0.90;;
13051;SDS011;6592;47.484;9.726;2024-02-21T00:34:50;2.15;;;0.80;;
13051;SDS011;6592;47.484;9.726;2024-02-21T00:37:19;2.88;;;0.77;;
13051;SDS011;6592;47.484;9.726;2024-02-21T00:39:47;1.85;;;0.70;;
13051;SDS011;6592;47.484;9.726;2024-02-21T00:42:15;2.00;;;0.73;;
13051;SDS011;6592;47.484;9.726;2024-02-21T00:44:43;1.77;;;0.80;;
13051;SDS011;6592;47.484;9.726;2024-02-21T00:47:12;2.72;;;1.00;;
13051;SDS011;6592;47.484;9.726;2024-02-21T00:49:42;4.22;;;0.85;;
13051;SDS011;6592;47.484;9.726;2024-02-21T00:52:10;2.78;;;0.90;;
13051;SDS011;6592;47.484;9.726;2024-02-21T00:54:38;2.25;;;0.90;;
13051;SDS011;6592;47.484;9.726;2024-02-21T00:57:18;2.67;;;0.90;;
13051;SDS011;6592;47.484;9.726;2024-02-21T00:59:47;1.95;;;0.90;;
13051;SDS011;6592;47.484;9.726;2024-02-21T01:02:15;4.97;;;1.15;;
13051;SDS011;6592;47.484;9.726;2024-02-21T01:04:45;4.45;;;1.20;;
13051;SDS011;6592;47.484;9.726;2024-02-21T01:07:13;2.38;;;1.08;;
13051;SDS011;6592;47.484;9.726;2024-02-21T01:09:41;2.33;;;1.02;;
13051;SDS011;6592;47.484;9.726;2024-02-21T01:12:09;4.10;;;1.10;;
13051;SDS011;6592;47.484;9.726;2024-02-21T01:14:38;2.97;;;1.15;;
13051;SDS011;6592;47.484;9.726;2024-02-21T01:17:06;2.95;;;1.00;;
13051;SDS011;6592;47.484;9.726;2024-02-21T01:19:34;3.17;;;0.95;;
13051;SDS011;6592;47.484;9.726;2024-02-21T01:22:04;3.30;;;0.80;;
13051;SDS011;6592;47.484;9.726;2024-02-21T01:24:32;3.28;;;1.10;;
13051;SDS011;6592;47.484;9.726;2024-02-21T01:27:00;3.90;;;0.90;;
13051;SDS011;6592;47.484;9.726;2024-02-21T01:29:28;2.20;;;1.10;;
13051;SDS011;6592;47.484;9.726;2024-02-21T01:31:57;2.60;;;0.88;;
13051;SDS011;6592;47.484;9.726;2024-02-21T01:34:25;2.10;;;1.00;;
13051;SDS011;6592;47.484;9.726;2024-02-21T01:36:58;3.60;;;1.00;;
13051;SDS011;6592;47.484;9.726;2024-02-21T01:39:32;3.53;;;0.90;;
13051;SDS011;6592;47.484;9.726;2024-02-21T01:42:00;2.78;;;1.00;;
13051;SDS011;6592;47.484;9.726;2024-02-21T01:44:28;1.88;;;0.75;;
13051;SDS011;6592;47.484;9.726;2024-02-21T01:46:57;3.92;;;1.00;;
13051;SDS011;6592;47.484;9.726;2024-02-21T01:49:26;3.17;;;0.80;;
13051;SDS011;6592;47.484;9.726;2024-02-21T01:51:55;3.25;;;0.95;;
13051;SDS011;6592;47.484;9.726;2024-02-21T01:54:23;2.08;;;0.80;;
13051;SDS011;6592;47.484;9.726;2024-02-21T01:56:56;3.25;;;0.85;;
13051;SDS011;6592;47.484;9.726;2024-02-21T01:59:25;1.60;;;0.70;;
13051;SDS011;6592;47.484;9.726;2024-02-21T02:01:55;2.17;;;0.90;;
13051;SDS011;6592;47.484;9.726;2024-02-21T02:04:23;2.17;;;0.90;;
13051;SDS011;6592;47.484;9.726;2024-02-21T02:06:54;3.20;;;1.00;;
13051;SDS011;6592;47.484;9.726;2024-02-21T02:09:23;2.47;;;0.90;;
13051;SDS011;6592;47.484;9.726;2024-02-21T02:11:51;4.80;;;1.00;;
13051;SDS011;6592;47.484;9.726;2024-02-21T02:14:20;2.13;;;0.70;;
13051;SDS011;6592;47.484;9.726;2024-02-21T02:16:49;2.30;;;0.85;;
13051;SDS011;6592;47.484;9.726;2024-02-21T02:19:17;2.92;;;0.80;;
13051;SDS011;6592;47.484;9.726;2024-02-21T02:21:46;2.92;;;1.10;;
13051;SDS011;6592;47.484;9.726;2024-02-21T02:24:23;2.55;;;0.77;;
13051;SDS011;6592;47.484;9.726;2024-02-21T02:26:52;2.58;;;0.80;;
13051;SDS011;6592;47.484;9.726;2024-02-21T02:29:20;3.05;;;1.10;;
13051;SDS011;6592;47.484;9.726;2024-02-21T02:31:49;1.88;;;0.90;;
13051;SDS011;6592;47.484;9.726;2024-02-21T02:34:17;2.95;;;1.13;;
13051;SDS011;6592;47.484;9.726;2024-02-21T02:36:45;1.65;;;0.80;;
13051;SDS011;6592;47.484;9.726;2024-02-21T02:39:15;2.78;;;0.90;;
13051;SDS011;6592;47.484;9.726;2024-02-21T02:41:45;1.90;;;0.80;;
13051;SDS011;6592;47.484;9.726;2024-02-21T02:44:13;1.85;;;0.73;;
13051;SDS011;6592;47.484;9.726;2024-02-21T02:46:42;2.25;;;0.75;;
13051;SDS011;6592;47.484;9.726;2024-02-21T02:49:10;5.25;;;0.88;;
13051;SDS011;6592;47.484;9.726;2024-02-21T02:51:41;1.60;;;0.68;;
13051;SDS011;6592;47.484;9.726;2024-02-21T02:54:10;1.70;;;0.80;;
13051;SDS011;6592;47.484;9.726;2024-02-21T02:56:38;2.63;;;0.82;;
13051;SDS011;6592;47.484;9.726;2024-02-21T02:59:08;1.00;;;0.60;;
13051;SDS011;6592;47.484;9.726;2024-02-21T03:01:36;2.75;;;0.82;;
13051;SDS011;6592;47.484;9.726;2024-02-21T03:04:05;1.30;;;0.60;;
13051;SDS011;6592;47.484;9.726;2024-02-21T03:06:33;1.48;;;0.73;;
13051;SDS011;6592;47.484;9.726;2024-02-21T03:09:01;1.73;;;0.77;;
13051;SDS011;6592;47.484;9.726;2024-02-21T03:11:35;2.08;;;0.80;;
13051;SDS011;6592;47.484;9.726;2024-02-21T03:14:09;1.73;;;0.60;;
13051;SDS011;6592;47.484;9.726;2024-02-21T03:16:37;2.15;;;0.90;;
13051;SDS011;6592;47.484;9.726;2024-02-21T03:19:05;1.90;;;0.70;;
13051;SDS011;6592;47.484;9.726;2024-02-21T03:21:34;2.47;;;0.80;;
13051;SDS011;6592;47.484;9.726;2024-02-21T03:24:02;2.58;;;0.70;;
13051;SDS011;6592;47.484;9.726;2024-02-21T03:26:31;3.10;;;0.75;;
13051;SDS011;6592;47.484;9.726;2024-02-21T03:28:59;1.70;;;0.50;;
13051;SDS011;6592;47.484;9.726;2024-02-21T03:31:28;1.73;;;0.75;;
13051;SDS011;6592;47.484;9.726;2024-02-21T03:33:58;1.38;;;0.65;;
13051;SDS011;6592;47.484;9.726;2024-02-21T03:36:26;1.33;;;0.50;;
13051;SDS011;6592;47.484;9.726;2024-02-21T03:38:54;1.80;;;0.70;;
13051;SDS011;6592;47.484;9.726;2024-02-21T03:41:23;5.78;;;0.70;;
13051;SDS011;6592;47.484;9.726;2024-02-21T03:43:51;1.38;;;0.65;;
13051;SDS011;6592;47.484;9.726;2024-02-21T03:46:20;1.35;;;0.47;;
13051;SDS011;6592;47.484;9.726;2024-02-21T03:48:49;0.93;;;0.40;;
13051;SDS011;6592;47.484;9.726;2024-02-21T03:51:18;1.48;;;0.60;;
13051;SDS011;6592;47.484;9.726;2024-02-21T03:53:46;1.15;;;0.38;;
13051;SDS011;6592;47.484;9.726;2024-02-21T03:56:14;1.23;;;0.45;;
13051;SDS011;6592;47.484;9.726;2024-02-21T03:58:42;1.05;;;0.52;;
13051;SDS011;6592;47.484;9.726;2024-02-21T04:01:11;3.28;;;0.70;;
13051;SDS011;6592;47.484;9.726;2024-02-21T04:03:40;1.13;;;0.45;;
13051;SDS011;6592;47.484;9.726;2024-02-21T04:06:09;1.40;;;0.55;;
13051;SDS011;6592;47.484;9.726;2024-02-21T04:08:38;1.52;;;0.73;;
13051;SDS011;6592;47.484;9.726;2024-02-21T04:11:07;1.65;;;0.73;;
13051;SDS011;6592;47.484;9.726;2024-02-21T04:13:35;2.55;;;0.70;;
13051;SDS011;6592;47.484;9.726;2024-02-21T04:16:03;2.70;;;0.70;;
13051;SDS011;6592;47.484;9.726;2024-02-21T04:18:33;2.13;;;0.55;;
13051;SDS011;6592;47.484;9.726;2024-02-21T04:21:01;2.25;;;0.70;;
13051;SDS011;6592;47.484;9.726;2024-02-21T04:23:31;1.65;;;0.50;;
13051;SDS011;6592;47.484;9.726;2024-02-21T04:25:59;2.35;;;0.80;;
13051;SDS011;6592;47.484;9.726;2024-02-21T04:28:27;1.58;;;0.70;;
13051;SDS011;6592;47.484;9.726;2024-02-21T04:30:56;1.48;;;0.50;;
13051;SDS011;6592;47.484;9.726;2024-02-21T04:33:24;1.30;;;0.50;;
13051;SDS011;6592;47.484;9.726;2024-02-21T04:35:52;0.90;;;0.40;;
13051;SDS011;6592;47.484;9.726;2024-02-21T04:38:21;1.90;;;0.70;;
13051;SDS011;6592;47.484;9.726;2024-02-21T04:40:51;0.60;;;0.30;;
13051;SDS011;6592;47.484;9.726;2024-02-21T04:43:19;1.55;;;0.60;;
13051;SDS011;6592;47.484;9.726;2024-02-21T04:45:47;1.90;;;0.80;;
13051;SDS011;6592;47.484;9.726;2024-02-21T04:48:16;1.60;;;0.65;;
13051;SDS011;6592;47.484;9.726;2024-02-21T04:50:45;2.03;;;0.60;;
13051;SDS011;6592;47.484;9.726;2024-02-21T04:53:13;1.55;;;0.60;;
13051;SDS011;6592;47.484;9.726;2024-02-21T04:55:42;1.75;;;0.57;;
13051;SDS011;6592;47.484;9.726;2024-02-21T04:58:12;0.98;;;0.50;;
13051;SDS011;6592;47.484;9.726;2024-02-21T05:00:40;2.22;;;0.70;;
13051;SDS011;6592;47.484;9.726;2024-02-21T05:03:09;1.30;;;0.70;;
13051;SDS011;6592;47.484;9.726;2024-02-21T05:05:37;1.08;;;0.50;;
13051;SDS011;6592;47.484;9.726;2024-02-21T05:08:06;1.65;;;0.40;;
13051;SDS011;6592;47.484;9.726;2024-02-21T05:10:35;2.25;;;0.75;;
13051;SDS011;6592;47.484;9.726;2024-02-21T05:13:03;3.70;;;0.60;;
13051;SDS011;6592;47.484;9.726;2024-02-21T05:15:33;1.48;;;0.80;;
13051;SDS011;6592;47.484;9.726;2024-02-21T05:18:01;1.35;;;0.50;;
13051;SDS011;6592;47.484;9.726;2024-02-21T05:20:29;0.88;;;0.43;;
13051;SDS011;6592;47.484;9.726;2024-02-21T05:22:58;1.55;;;0.60;;
13051;SDS011;6592;47.484;9.726;2024-02-21T05:25:26;3.33;;;0.50;;
13051;SDS011;6592;47.484;9.726;2024-02-21T05:27:55;3.75;;;0.90;;
13051;SDS011;6592;47.484;9.726;2024-02-21T05:30:28;2.28;;;0.73;;
13051;SDS011;6592;47.484;9.726;2024-02-21T05:32:57;2.67;;;0.90;;
13051;SDS011;6592;47.484;9.726;2024-02-21T05:35:26;5.32;;;0.90;;
13051;SDS011;6592;47.484;9.726;2024-02-21T05:37:55;1.70;;;0.70;;
13051;SDS011;6592;47.484;9.726;2024-02-21T05:40:23;2.35;;;0.60;;
13051;SDS011;6592;47.484;9.726;2024-02-21T05:42:51;1.48;;;0.50;;
13051;SDS011;6592;47.484;9.726;2024-02-21T05:45:20;1.00;;;0.43;;
13051;SDS011;6592;47.484;9.726;2024-02-21T05:47:48;1.33;;;0.50;;
13051;SDS011;6592;47.484;9.726;2024-02-21T05:50:18;1.45;;;0.65;;
13051;SDS011;6592;47.484;9.726;2024-02-21T05:52:48;1.33;;;0.50;;
13051;SDS011;6592;47.484;9.726;2024-02-21T05:55:16;1.27;;;0.50;;
13051;SDS011;6592;47.484;9.726;2024-02-21T05:57:45;1.25;;;0.50;;
13051;SDS011;6592;47.484;9.726;2024-02-21T06:00:14;2.58;;;0.60;;
13051;SDS011;6592;47.484;9.726;2024-02-21T06:02:43;1.30;;;0.50;;
13051;SDS011;6592;47.484;9.726;2024-02-21T06:05:11;2.30;;;0.75;;
13051;SDS011;6592;47.484;9.726;2024-02-21T06:07:41;2.75;;;1.15;;
13051;SDS011;6592;47.484;9.726;2024-02-21T06:10:09;4.53;;;1.50;;
13051;SDS011;6592;47.484;9.726;2024-02-21T06:12:37;4.50;;;1.40;;
13051;SDS011;6592;47.484;9.726;2024-02-21T06:15:06;3.60;;;1.40;;
13051;SDS011;6592;47.484;9.726;2024-02-21T06:17:35;10.40;;;2.22;;
13051;SDS011;6592;47.484;9.726;2024-02-21T06:20:03;3.38;;;1.45;;
13051;SDS011;6592;47.484;9.726;2024-02-21T06:22:33;3.45;;;1.05;;
13051;SDS011;6592;47.484;9.726;2024-02-21T06:25:02;3.53;;;1.30;;
13051;SDS011;6592;47.484;9.726;2024-02-21T06:27:31;2.10;;;1.00;;
13051;SDS011;6592;47.484;9.726;2024-02-21T06:29:59;2.30;;;0.80;;
13051;SDS011;6592;47.484;9.726;2024-02-21T06:32:27;2.28;;;0.82;;
13051;SDS011;6592;47.484;9.726;2024-02-21T06:34:56;4.10;;;0.93;;
13051;SDS011;6592;47.484;9.726;2024-02-21T06:37:24;1.95;;;0.70;;
13051;SDS011;6592;47.484;9.726;2024-02-21T06:39:52;2.20;;;0.70;;
13051;SDS011;6592;47.484;9.726;2024-02-21T06:42:24;1.23;;;0.70;;
13051;SDS011;6592;47.484;9.726;2024-02-21T06:44:52;1.20;;;0.60;;
13051;SDS011;6592;47.484;9.726;2024-02-21T06:47:21;4.78;;;0.80;;
13051;SDS011;6592;47.484;9.726;2024-02-21T06:49:49;1.38;;;0.60;;
13051;SDS011;6592;47.484;9.726;2024-02-21T06:52:18;1.38;;;0.63;;
13051;SDS011;6592;47.484;9.726;2024-02-21T06:54:47;1.55;;;0.70;;
13051;SDS011;6592;47.484;9.726;2024-02-21T06:57:15;2.78;;;0.77;;
13051;SDS011;6592;47.484;9.726;2024-02-21T06:59:45;3.13;;;1.10;;
13051;SDS011;6592;47.484;9.726;2024-02-21T07:02:13;5.78;;;1.75;;
13051;SDS011;6592;47.484;9.726;2024-02-21T07:04:42;6.78;;;2.55;;
13051;SDS011;6592;47.484;9.726;2024-02-21T07:07:11;9.05;;;2.85;;
13051;SDS011;6592;47.484;9.726;2024-02-21T07:09:39;26.73;;;9.70;;
13051;SDS011;6592;47.484;9.726;2024-02-21T07:12:08;10.55;;;5.00;;
13051;SDS011;6592;47.484;9.726;2024-02-21T07:14:36;3.38;;;2.22;;
13051;SDS011;6592;47.484;9.726;2024-02-21T07:17:06;2.08;;;0.90;;
13051;SDS011;6592;47.484;9.726;2024-02-21T07:19:35;2.83;;;0.80;;
13051;SDS011;6592;47.484;9.726;2024-02-21T07:22:03;2.63;;;1.23;;
13051;SDS011;6592;47.484;9.726;2024-02-21T07:24:32;1.88;;;1.15;;
13051;SDS011;6592;47.484;9.726;2024-02-21T07:27:00;2.17;;;0.98;;
13051;SDS011;6592;47.484;9.726;2024-02-21T07:29:31;4.35;;;1.80;;
13051;SDS011;6592;47.484;9.726;2024-02-21T07:31:59;6.47;;;2.67;;
13051;SDS011;6592;47.484;9.726;2024-02-21T07:34:29;4.32;;;1.88;;
13051;SDS011;6592;47.484;9.726;2024-02-21T07:36:57;1.50;;;0.70;;
13051;SDS011;6592;47.484;9.726;2024-02-21T07:39:26;2.70;;;1.35;;
13051;SDS011;6592;47.484;9.726;2024-02-21T07:41:54;4.55;;;1.60;;
13051;SDS011;6592;47.484;9.726;2024-02-21T07:44:22;4.93;;;1.45;;
13051;SDS011;6592;47.484;9.726;2024-02-21T07:46:50;1.92;;;0.88;;
13051;SDS011;6592;47.484;9.726;2024-02-21T07:49:19;2.47;;;0.77;;
13051;SDS011;6592;47.484;9.726;2024-02-21T07:51:48;1.98;;;1.00;;
13051;SDS011;6592;47.484;9.726;2024-02-21T07:54:17;2.55;;;0.90;;
13051;SDS011;6592;47.484;9.726;2024-02-21T07:56:46;1.67;;;0.80;;
13051;SDS011;6592;47.484;9.726;2024-02-21T07:59:15;2.30;;;0.80;;
13051;SDS011;6592;47.484;9.726;2024-02-21T08:01:43;2.15;;;1.10;;
13051;SDS011;6592;47.484;9.726;2024-02-21T08:04:12;1.85;;;0.60;;
13051;SDS011;6592;47.484;9.726;2024-02-21T08:06:41;1.83;;;0.98;;
13051;SDS011;6592;47.484;9.726;2024-02-21T08:09:11;3.38;;;0.50;;
13051;SDS011;6592;47.484;9.726;2024-02-21T08:11:39;3.28;;;0.88;;
13051;SDS011;6592;47.484;9.726;2024-02-21T08:14:07;3.30;;;0.80;;
13051;SDS011;6592;47.484;9.726;2024-02-21T08:16:36;2.42;;;0.88;;
13051;SDS011;6592;47.484;9.726;2024-02-21T08:19:04;3.38;;;0.80;;
13051;SDS011;6592;47.484;9.726;2024-02-21T08:21:33;3.55;;;1.10;;
13051;SDS011;6592;47.484;9.726;2024-02-21T08:24:01;1.75;;;0.70;;
13051;SDS011;6592;47.484;9.726;2024-02-21T08:26:31;1.63;;;0.68;;
13051;SDS011;6592;47.484;9.726;2024-02-21T08:28:59;3.17;;;0.70;;
13051;SDS011;6592;47.484;9.726;2024-02-21T08:31:28;2.15;;;0.70;;
13051;SDS011;6592;47.484;9.726;2024-02-21T08:33:58;4.00;;;0.73;;
13051;SDS011;6592;47.484;9.726;2024-02-21T08:36:29;4.10;;;0.68;;
13051;SDS011;6592;47.484;9.726;2024-02-21T08:38:58;2.30;;;0.80;;
13051;SDS011;6592;47.484;9.726;2024-02-21T08:41:27;1.88;;;0.60;;
13051;SDS011;6592;47.484;9.726;2024-02-21T08:44:18;3.63;;;0.43;;
13051;SDS011;6592;47.484;9.726;2024-02-21T08:46:47;2.88;;;0.57;;
13051;SDS011;6592;47.484;9.726;2024-02-21T08:49:15;1.15;;;0.47;;
13051;SDS011;6592;47.484;9.726;2024-02-21T08:51:43;1.70;;;0.70;;
13051;SDS011;6592;47.484;9.726;2024-02-21T08:54:13;1.45;;;0.52;;
13051;SDS011;6592;47.484;9.726;2024-02-21T08:56:41;1.15;;;0.50;;
13051;SDS011;6592;47.484;9.726;2024-02-21T08:59:09;1.92;;;1.02;;
13051;SDS011;6592;47.484;9.726;2024-02-21T09:01:39;3.45;;;0.73;;
13051;SDS011;6592;47.484;9.726;2024-02-21T09:04:08;1.75;;;0.65;;
13051;SDS011;6592;47.484;9.726;2024-02-21T09:06:36;2.03;;;0.60;;
13051;SDS011;6592;47.484;9.726;2024-02-21T09:09:08;1.38;;;0.60;;
13051;SDS011;6592;47.484;9.726;2024-02-21T09:11:36;5.78;;;0.60;;
13051;SDS011;6592;47.484;9.726;2024-02-21T09:14:06;3.10;;;0.50;;
13051;SDS011;6592;47.484;9.726;2024-02-21T09:16:34;1.23;;;0.60;;
13051;SDS011;6592;47.484;9.726;2024-02-21T09:19:04;3.28;;;0.70;;
13051;SDS011;6592;47.484;9.726;2024-02-21T09:21:33;2.58;;;0.52;;
13051;SDS011;6592;47.484;9.726;2024-02-21T09:24:02;1.80;;;0.88;;
13051;SDS011;6592;47.484;9.726;2024-02-21T09:26:30;1.27;;;0.55;;
13051;SDS011;6592;47.484;9.726;2024-02-21T09:28:58;2.90;;;0.98;;
13051;SDS011;6592;47.484;9.726;2024-02-21T09:31:27;2.10;;;0.60;;
13051;SDS011;6592;47.484;9.726;2024-02-21T09:33:56;3.22;;;0.70;;
13051;SDS011;6592;47.484;9.726;2024-02-21T09:36:25;3.63;;;0.70;;
13051;SDS011;6592;47.484;9.726;2024-02-21T09:38:53;1.38;;;0.50;;
13051;SDS011;6592;47.484;9.726;2024-02-21T09:41:23;2.45;;;0.60;;
13051;SDS011;6592;47.484;9.726;2024-02-21T09:43:54;3.60;;;1.20;;
13051;SDS011;6592;47.484;9.726;2024-02-21T09:46:24;3.67;;;1.42;;
13051;SDS011;6592;47.484;9.726;2024-02-21T09:49:17;3.20;;;1.38;;
13051;SDS011;6592;47.484;9.726;2024-02-21T09:51:56;3.50;;;1.23;;
13051;SDS011;6592;47.484;9.726;2024-02-21T09:54:29;3.25;;;1.13;;
13051;SDS011;6592;47.484;9.726;2024-02-21T09:56:59;2.65;;;1.15;;
13051;SDS011;6592;47.484;9.726;2024-02-21T09:59:28;2.53;;;1.35;;
13051;SDS011;6592;47.484;9.726;2024-02-21T10:01:58;3.15;;;1.55;;
13051;SDS011;6592;47.484;9.726;2024-02-21T10:04:28;3.00;;;1.40;;
13051;SDS011;6592;47.484;9.726;2024-02-21T10:07:00;2.88;;;1.20;;
13051;SDS011;6592;47.484;9.726;2024-02-21T10:09:29;3.60;;;1.30;;
13051;SDS011;6592;47.484;9.726;2024-02-21T10:12:07;2.80;;;1.30;;
13051;SDS011;6592;47.484;9.726;2024-02-21T10:14:37;4.55;;;1.38;;
13051;SDS011;6592;47.484;9.726;2024-02-21T10:17:05;4.47;;;1.30;;
13051;SDS011;6592;47.484;9.726;2024-02-21T10:19:37;3.15;;;1.33;;
13051;SDS011;6592;47.484;9.726;2024-02-21T10:22:08;5.05;;;1.58;;
13051;SDS011;6592;47.484;9.726;2024-02-21T10:24:37;2.78;;;1.20;;
13051;SDS011;6592;47.484;9.726;2024-02-21T10:27:08;3.43;;;1.50;;
13051;SDS011;6592;47.484;9.726;2024-02-21T10:29:39;4.07;;;1.55;;
13051;SDS011;6592;47.484;9.726;2024-02-21T10:32:08;2.75;;;1.30;;
13051;SDS011;6592;47.484;9.726;2024-02-21T10:34:39;4.63;;;1.48;;
13051;SDS011;6592;47.484;9.726;2024-02-21T10:37:12;2.80;;;1.42;;
13051;SDS011;6592;47.484;9.726;2024-02-21T10:39:41;2.80;;;1.10;;
13051;SDS011;6592;47.484;9.726;2024-02-21T10:42:11;2.15;;;1.15;;
13051;SDS011;6592;47.484;9.726;2024-02-21T10:44:40;2.08;;;1.00;;
13051;SDS011;6592;47.484;9.726;2024-02-21T10:47:09;4.35;;;0.95;;
13051;SDS011;6592;47.484;9.726;2024-02-21T10:49:40;3.03;;;1.13;;
13051;SDS011;6592;47.484;9.726;2024-02-21T10:52:14;2.75;;;1.20;;
13051;SDS011;6592;47.484;9.726;2024-02-21T10:54:45;4.13;;;1.15;;
13051;SDS011;6592;47.484;9.726;2024-02-21T10:57:16;1.63;;;0.90;;
13051;SDS011;6592;47.484;9.726;2024-02-21T10:59:46;2.35;;;0.93;;
13051;SDS011;6592;47.484;9.726;2024-02-21T11:02:16;2.13;;;1.00;;
13051;SDS011;6592;47.484;9.726;2024-02-21T11:04:45;3.15;;;1.20;;
13051;SDS011;6592;47.484;9.726;2024-02-21T11:07:16;2.40;;;1.13;;
13051;SDS011;6592;47.484;9.726;2024-02-21T11:09:50;2.20;;;1.02;;
13051;SDS011;6592;47.484;9.726;2024-02-21T11:12:21;1.70;;;0.80;;
13051;SDS011;6592;47.484;9.726;2024-02-21T11:14:50;2.28;;;1.10;;
13051;SDS011;6592;47.484;9.726;2024-02-21T11:17:19;1.77;;;1.00;;
13051;SDS011;6592;47.484;9.726;2024-02-21T11:19:52;2.70;;;1.08;;
13051;SDS011;6592;47.484;9.726;2024-02-21T11:22:22;2.08;;;1.10;;
13051;SDS011;6592;47.484;9.726;2024-02-21T11:25:05;2.50;;;0.90;;
13051;SDS011;6592;47.484;9.726;2024-02-21T11:27:38;2.45;;;1.20;;
13051;SDS011;6592;47.484;9.726;2024-02-21T11:30:06;3.08;;;1.20;;
13051;SDS011;6592;47.484;9.726;2024-02-21T11:32:42;3.30;;;1.05;;
13051;SDS011;6592;47.484;9.726;2024-02-21T11:35:18;1.83;;;1.02;;
13051;SDS011;6592;47.484;9.726;2024-02-21T11:37:48;2.10;;;0.90;;
13051;SDS011;6592;47.484;9.726;2024-02-21T11:40:17;2.70;;;1.10;;
13051;SDS011;6592;47.484;9.726;2024-02-21T11:42:45;2.67;;;0.90;;
13051;SDS011;6592;47.484;9.726;2024-02-21T11:45:14;3.17;;;1.00;;
13051;SDS011;6592;47.484;9.726;2024-02-21T11:47:44;4.03;;;1.48;;
13051;SDS011;6592;47.484;9.726;2024-02-21T11:50:13;2.08;;;1.10;;
13051;SDS011;6592;47.484;9.726;2024-02-21T11:52:45;1.98;;;0.90;;
13051;SDS011;6592;47.484;9.726;2024-02-21T11:55:17;2.65;;;0.98;;
13051;SDS011;6592;47.484;9.726;2024-02-21T11:57:47;1.98;;;0.98;;
13051;SDS011;6592;47.484;9.726;2024-02-21T12:00:16;1.65;;;0.93;;
13051;SDS011;6592;47.484;9.726;2024-02-21T12:02:47;2.00;;;0.82;;
13051;SDS011;6592;47.484;9.726;2024-02-21T12:05:16;2.45;;;0.90;;
13051;SDS011;6592;47.484;9.726;2024-02-21T12:07:47;2.58;;;1.10;;
13051;SDS011;6592;47.484;9.726;2024-02-21T12:10:17;1.50;;;0.80;;
13051;SDS011;6592;47.484;9.726;2024-02-21T12:12:45;3.33;;;1.00;;
13051;SDS011;6592;47.484;9.726;2024-02-21T12:15:14;2.38;;;1.05;;
13051;SDS011;6592;47.484;9.726;2024-02-21T12:17:42;5.60;;;1.10;;
13051;SDS011;6592;47.484;9.726;2024-02-21T12:20:11;2.35;;;0.93;;
13051;SDS011;6592;47.484;9.726;2024-02-21T12:22:41;2.35;;;1.20;;
13051;SDS011;6592;47.484;9.726;2024-02-21T12:25:20;3.05;;;1.23;;
13051;SDS011;6592;47.484;9.726;2024-02-21T12:27:52;2.25;;;1.00;;
13051;SDS011;6592;47.484;9.726;2024-02-21T12:30:20;3.40;;;1.15;;
13051;SDS011;6592;47.484;9.726;2024-02-21T12:32:49;3.15;;;1.10;;
13051;SDS011;6592;47.484;9.726;2024-02-21T12:35:17;2.00;;;0.98;;
13051;SDS011;6592;47.484;9.726;2024-02-21T12:37:46;2.05;;;1.08;;
13051;SDS011;6592;47.484;9.726;2024-02-21T12:40:14;1.92;;;0.77;;
13051;SDS011;6592;47.484;9.726;2024-02-21T12:42:44;2.33;;;1.20;;
13051;SDS011;6592;47.484;9.726;2024-02-21T12:45:13;2.15;;;0.88;;
13051;SDS011;6592;47.484;9.726;2024-02-21T12:47:42;1.77;;;0.90;;
13051;SDS011;6592;47.484;9.726;2024-02-21T12:50:10;1.95;;;1.00;;
13051;SDS011;6592;47.484;9.726;2024-02-21T12:52:39;2.67;;;1.08;;
13051;SDS011;6592;47.484;9.726;2024-02-21T12:55:07;2.35;;;0.98;;
13051;SDS011;6592;47.484;9.726;2024-02-21T12:57:37;2.43;;;0.90;;
13051;SDS011;6592;47.484;9.726;2024-02-21T13:00:08;2.50;;;0.90;;
13051;SDS011;6592;47.484;9.726;2024-02-21T13:02:37;5.00;;;1.00;;
13051;SDS011;6592;47.484;9.726;2024-02-21T13:05:06;2.28;;;0.93;;
13051;SDS011;6592;47.484;9.726;2024-02-21T13:07:35;3.10;;;0.90;;
13051;SDS011;6592;47.484;9.726;2024-02-21T13:10:03;1.75;;;0.90;;
13051;SDS011;6592;47.484;9.726;2024-02-21T13:12:32;1.90;;;0.80;;
13051;SDS011;6592;47.484;9.726;2024-02-21T13:15:01;2.40;;;0.90;;
13051;SDS011;6592;47.484;9.726;2024-02-21T13:17:30;2.20;;;0.88;;
13051;SDS011;6592;47.484;9.726;2024-02-21T13:19:59;1.85;;;0.80;;
13051;SDS011;6592;47.484;9.726;2024-02-21T13:22:28;2.88;;;0.95;;
13051;SDS011;6592;47.484;9.726;2024-02-21T13:24:56;2.25;;;0.90;;
13051;SDS011;6592;47.484;9.726;2024-02-21T13:27:25;2.80;;;1.00;;
13051;SDS011;6592;47.484;9.726;2024-02-21T13:29:53;2.15;;;0.90;;
13051;SDS011;6592;47.484;9.726;2024-02-21T13:32:21;1.80;;;0.90;;
13051;SDS011;6592;47.484;9.726;2024-02-21T13:34:51;2.55;;;0.80;;
13051;SDS011;6592;47.484;9.726;2024-02-21T13:37:20;1.70;;;0.82;;
13051;SDS011;6592;47.484;9.726;2024-02-21T13:39:48;2.80;;;1.00;;
13051;SDS011;6592;47.484;9.726;2024-02-21T13:42:17;4.50;;;1.15;;
13051;SDS011;6592;47.484;9.726;2024-02-21T13:44:45;3.22;;;1.45;;
13051;SDS011;6592;47.484;9.726;2024-02-21T13:47:14;2.90;;;1.20;;
13051;SDS011;6592;47.484;9.726;2024-02-21T13:49:42;3.10;;;1.20;;
13051;SDS011;6592;47.484;9.726;2024-02-21T13:52:12;3.85;;;1.38;;
13051;SDS011;6592;47.484;9.726;2024-02-21T13:54:41;3.20;;;1.10;;
13051;SDS011;6592;47.484;9.726;2024-02-21T13:57:10;3.10;;;1.23;;
13051;SDS011;6592;47.484;9.726;2024-02-21T13:59:38;4.20;;;1.20;;
13051;SDS011;6592;47.484;9.726;2024-02-21T14:02:09;2.40;;;0.90;;
13051;SDS011;6592;47.484;9.726;2024-02-21T14:04:38;2.58;;;0.85;;
13051;SDS011;6592;47.484;9.726;2024-02-21T14:07:06;3.08;;;0.93;;
13051;SDS011;6592;47.484;9.726;2024-02-21T14:09:36;3.22;;;0.90;;
13051;SDS011;6592;47.484;9.726;2024-02-21T14:12:05;2.83;;;1.00;;
13051;SDS011;6592;47.484;9.726;2024-02-21T14:14:34;3.40;;;1.25;;
13051;SDS011;6592;47.484;9.726;2024-02-21T14:19:34;2.15;;;1.00;;
13051;SDS011;6592;47.484;9.726;2024-02-21T14:22:02;4.47;;;0.98;;
13051;SDS011;6592;47.484;9.726;2024-02-21T14:24:30;1.65;;;0.90;;
13051;SDS011;6592;47.484;9.726;2024-02-21T14:27:00;2.47;;;0.90;;
13051;SDS011;6592;47.484;9.726;2024-02-21T14:29:29;3.55;;;1.20;;
13051;SDS011;6592;47.484;9.726;2024-02-21T14:31:58;2.40;;;1.02;;
13051;SDS011;6592;47.484;9.726;2024-02-21T14:34:26;2.75;;;1.02;;
13051;SDS011;6592;47.484;9.726;2024-02-21T14:36:55;5.70;;;0.90;;
13051;SDS011;6592;47.484;9.726;2024-02-21T14:39:23;2.67;;;1.00;;
13051;SDS011;6592;47.484;9.726;2024-02-21T14:41:51;2.60;;;1.00;;
13051;SDS011;6592;47.484;9.726;2024-02-21T14:44:21;3.60;;;1.02;;
13051;SDS011;6592;47.484;9.726;2024-02-21T14:46:49;2.30;;;1.02;;
13051;SDS011;6592;47.484;9.726;2024-02-21T14:49:17;5.28;;;1.30;;
13051;SDS011;6592;47.484;9.726;2024-02-21T14:51:47;4.38;;;2.00;;
13051;SDS011;6592;47.484;9.726;2024-02-21T14:54:15;3.85;;;2.00;;
13051;SDS011;6592;47.484;9.726;2024-02-21T14:56:44;4.80;;;1.70;;
13051;SDS011;6592;47.484;9.726;2024-02-21T14:59:13;4.18;;;1.35;;
13051;SDS011;6592;47.484;9.726;2024-02-21T15:01:56;2.72;;;1.17;;
13051;SDS011;6592;47.484;9.726;2024-02-21T15:04:24;3.10;;;1.33;;
13051;SDS011;6592;47.484;9.726;2024-02-21T15:06:53;3.53;;;1.40;;
13051;SDS011;6592;47.484;9.726;2024-02-21T15:09:21;3.03;;;1.40;;
13051;SDS011;6592;47.484;9.726;2024-02-21T15:11:49;4.22;;;1.30;;
13051;SDS011;6592;47.484;9.726;2024-02-21T15:14:17;4.53;;;1.35;;